<?xml version="1.0" encoding="UTF-8" standalone="no" ?>
<gpx xmlns="http://www.topografix.com/GPX/1/1" xmlns:xsi="http://www.w3.org/2001/XMLSchema-instance" xsi:schemaLocation="http://www.topografix.com/GPX/1/1 http://www.topografix.com/GPX/1/1/gpx.xsd" version="1.1" creator="VisuGPX - https://www.visugpx.com">
  <metadata>
    <name>AVF-2013-Lorgues  - St Jaume</name>
    <desc><![CDATA[Lorgues  - St Jaume - Dolmen ]]></desc>
  </metadata>
  <trk>
    <name><![CDATA[Lorgues  - St Jaume]]></name>
    <trkseg>
      <trkpt lat="43.48476" lon="6.3302">
        <ele>162</ele>
        <time>2013-01-22T12:56:23Z</time>
      </trkpt>
      <trkpt lat="43.48467" lon="6.33027">
        <ele>157</ele>
        <time>2013-01-22T12:56:52Z</time>
      </trkpt>
      <trkpt lat="43.4846" lon="6.33036">
        <ele>157</ele>
        <time>2013-01-22T12:57:07Z</time>
      </trkpt>
      <trkpt lat="43.48468" lon="6.33027">
        <ele>157</ele>
        <time>2013-01-22T12:57:25Z</time>
      </trkpt>
      <trkpt lat="43.48475" lon="6.33018">
        <ele>157</ele>
        <time>2013-01-22T12:57:40Z</time>
      </trkpt>
      <trkpt lat="43.48482" lon="6.33009">
        <ele>156</ele>
        <time>2013-01-22T12:58:01Z</time>
      </trkpt>
      <trkpt lat="43.48492" lon="6.33004">
        <ele>156</ele>
        <time>2013-01-22T12:58:22Z</time>
      </trkpt>
      <trkpt lat="43.48504" lon="6.32999">
        <ele>155</ele>
        <time>2013-01-22T12:58:31Z</time>
      </trkpt>
      <trkpt lat="43.48513" lon="6.32992">
        <ele>154</ele>
        <time>2013-01-22T12:58:43Z</time>
      </trkpt>
      <trkpt lat="43.48523" lon="6.32986">
        <ele>152</ele>
        <time>2013-01-22T12:58:55Z</time>
      </trkpt>
      <trkpt lat="43.48532" lon="6.32978">
        <ele>151</ele>
        <time>2013-01-22T12:59:04Z</time>
      </trkpt>
      <trkpt lat="43.48542" lon="6.32969">
        <ele>151</ele>
        <time>2013-01-22T12:59:16Z</time>
      </trkpt>
      <trkpt lat="43.48548" lon="6.32956">
        <ele>151</ele>
        <time>2013-01-22T12:59:28Z</time>
      </trkpt>
      <trkpt lat="43.48554" lon="6.32944">
        <ele>151</ele>
        <time>2013-01-22T12:59:40Z</time>
      </trkpt>
      <trkpt lat="43.48561" lon="6.32936">
        <ele>152</ele>
        <time>2013-01-22T12:59:49Z</time>
      </trkpt>
      <trkpt lat="43.48569" lon="6.32928">
        <ele>153</ele>
        <time>2013-01-22T12:59:58Z</time>
      </trkpt>
      <trkpt lat="43.4858" lon="6.32925">
        <ele>154</ele>
        <time>2013-01-22T13:00:10Z</time>
      </trkpt>
      <trkpt lat="43.48589" lon="6.3292">
        <ele>154</ele>
        <time>2013-01-22T13:00:19Z</time>
      </trkpt>
      <trkpt lat="43.48596" lon="6.32909">
        <ele>155</ele>
        <time>2013-01-22T13:00:28Z</time>
      </trkpt>
      <trkpt lat="43.48605" lon="6.32899">
        <ele>156</ele>
        <time>2013-01-22T13:00:40Z</time>
      </trkpt>
      <trkpt lat="43.48613" lon="6.32892">
        <ele>156</ele>
        <time>2013-01-22T13:00:52Z</time>
      </trkpt>
      <trkpt lat="43.48621" lon="6.32885">
        <ele>157</ele>
        <time>2013-01-22T13:01:01Z</time>
      </trkpt>
      <trkpt lat="43.48629" lon="6.32878">
        <ele>158</ele>
        <time>2013-01-22T13:01:10Z</time>
      </trkpt>
      <trkpt lat="43.48639" lon="6.3287">
        <ele>158</ele>
        <time>2013-01-22T13:01:22Z</time>
      </trkpt>
      <trkpt lat="43.48647" lon="6.32862">
        <ele>159</ele>
        <time>2013-01-22T13:01:31Z</time>
      </trkpt>
      <trkpt lat="43.48655" lon="6.32856">
        <ele>161</ele>
        <time>2013-01-22T13:01:43Z</time>
      </trkpt>
      <trkpt lat="43.48664" lon="6.32849">
        <ele>162</ele>
        <time>2013-01-22T13:01:52Z</time>
      </trkpt>
      <trkpt lat="43.48674" lon="6.32846">
        <ele>164</ele>
        <time>2013-01-22T13:02:07Z</time>
      </trkpt>
      <trkpt lat="43.48683" lon="6.32844">
        <ele>165</ele>
        <time>2013-01-22T13:02:16Z</time>
      </trkpt>
      <trkpt lat="43.48694" lon="6.32843">
        <ele>167</ele>
        <time>2013-01-22T13:02:28Z</time>
      </trkpt>
      <trkpt lat="43.48705" lon="6.32844">
        <ele>168</ele>
        <time>2013-01-22T13:02:37Z</time>
      </trkpt>
      <trkpt lat="43.48714" lon="6.32854">
        <ele>169</ele>
        <time>2013-01-22T13:02:55Z</time>
      </trkpt>
      <trkpt lat="43.48725" lon="6.32859">
        <ele>170</ele>
        <time>2013-01-22T13:03:04Z</time>
      </trkpt>
      <trkpt lat="43.48736" lon="6.32862">
        <ele>171</ele>
        <time>2013-01-22T13:03:16Z</time>
      </trkpt>
      <trkpt lat="43.48745" lon="6.32863">
        <ele>172</ele>
        <time>2013-01-22T13:03:25Z</time>
      </trkpt>
      <trkpt lat="43.48755" lon="6.32866">
        <ele>173</ele>
        <time>2013-01-22T13:03:34Z</time>
      </trkpt>
      <trkpt lat="43.48766" lon="6.3287">
        <ele>174</ele>
        <time>2013-01-22T13:03:43Z</time>
      </trkpt>
      <trkpt lat="43.48777" lon="6.32873">
        <ele>174</ele>
        <time>2013-01-22T13:03:52Z</time>
      </trkpt>
      <trkpt lat="43.48787" lon="6.32874">
        <ele>174</ele>
        <time>2013-01-22T13:04:01Z</time>
      </trkpt>
      <trkpt lat="43.48797" lon="6.32879">
        <ele>174</ele>
        <time>2013-01-22T13:04:13Z</time>
      </trkpt>
      <trkpt lat="43.48807" lon="6.32885">
        <ele>175</ele>
        <time>2013-01-22T13:04:22Z</time>
      </trkpt>
      <trkpt lat="43.48818" lon="6.32886">
        <ele>175</ele>
        <time>2013-01-22T13:04:34Z</time>
      </trkpt>
      <trkpt lat="43.48829" lon="6.32888">
        <ele>175</ele>
        <time>2013-01-22T13:04:46Z</time>
      </trkpt>
      <trkpt lat="43.48841" lon="6.32889">
        <ele>175</ele>
        <time>2013-01-22T13:04:58Z</time>
      </trkpt>
      <trkpt lat="43.48852" lon="6.32893">
        <ele>175</ele>
        <time>2013-01-22T13:05:07Z</time>
      </trkpt>
      <trkpt lat="43.48863" lon="6.32898">
        <ele>174</ele>
        <time>2013-01-22T13:05:19Z</time>
      </trkpt>
      <trkpt lat="43.48873" lon="6.32899">
        <ele>174</ele>
        <time>2013-01-22T13:05:25Z</time>
      </trkpt>
      <trkpt lat="43.48883" lon="6.32899">
        <ele>172</ele>
        <time>2013-01-22T13:05:37Z</time>
      </trkpt>
      <trkpt lat="43.48894" lon="6.329">
        <ele>172</ele>
        <time>2013-01-22T13:05:46Z</time>
      </trkpt>
      <trkpt lat="43.48904" lon="6.32901">
        <ele>171</ele>
        <time>2013-01-22T13:05:55Z</time>
      </trkpt>
      <trkpt lat="43.48914" lon="6.32899">
        <ele>170</ele>
        <time>2013-01-22T13:06:04Z</time>
      </trkpt>
      <trkpt lat="43.48925" lon="6.32899">
        <ele>169</ele>
        <time>2013-01-22T13:06:13Z</time>
      </trkpt>
      <trkpt lat="43.48935" lon="6.32897">
        <ele>169</ele>
        <time>2013-01-22T13:06:22Z</time>
      </trkpt>
      <trkpt lat="43.48946" lon="6.32895">
        <ele>168</ele>
        <time>2013-01-22T13:06:33Z</time>
      </trkpt>
      <trkpt lat="43.48959" lon="6.32889">
        <ele>166</ele>
        <time>2013-01-22T13:06:42Z</time>
      </trkpt>
      <trkpt lat="43.48968" lon="6.32887">
        <ele>165</ele>
        <time>2013-01-22T13:06:51Z</time>
      </trkpt>
      <trkpt lat="43.48979" lon="6.32885">
        <ele>165</ele>
        <time>2013-01-22T13:07:00Z</time>
      </trkpt>
      <trkpt lat="43.48988" lon="6.32884">
        <ele>165</ele>
        <time>2013-01-22T13:07:09Z</time>
      </trkpt>
      <trkpt lat="43.48999" lon="6.32883">
        <ele>165</ele>
        <time>2013-01-22T13:07:18Z</time>
      </trkpt>
      <trkpt lat="43.49008" lon="6.32881">
        <ele>165</ele>
        <time>2013-01-22T13:07:27Z</time>
      </trkpt>
      <trkpt lat="43.4902" lon="6.32878">
        <ele>165</ele>
        <time>2013-01-22T13:07:39Z</time>
      </trkpt>
      <trkpt lat="43.49029" lon="6.32878">
        <ele>166</ele>
        <time>2013-01-22T13:07:45Z</time>
      </trkpt>
      <trkpt lat="43.49041" lon="6.32873">
        <ele>166</ele>
        <time>2013-01-22T13:07:54Z</time>
      </trkpt>
      <trkpt lat="43.49053" lon="6.3287">
        <ele>166</ele>
        <time>2013-01-22T13:08:06Z</time>
      </trkpt>
      <trkpt lat="43.49062" lon="6.32867">
        <ele>166</ele>
        <time>2013-01-22T13:08:15Z</time>
      </trkpt>
      <trkpt lat="43.49076" lon="6.32865">
        <ele>167</ele>
        <time>2013-01-22T13:08:30Z</time>
      </trkpt>
      <trkpt lat="43.49085" lon="6.32867">
        <ele>167</ele>
        <time>2013-01-22T13:08:39Z</time>
      </trkpt>
      <trkpt lat="43.49095" lon="6.32866">
        <ele>167</ele>
        <time>2013-01-22T13:08:51Z</time>
      </trkpt>
      <trkpt lat="43.49104" lon="6.32868">
        <ele>167</ele>
        <time>2013-01-22T13:09:03Z</time>
      </trkpt>
      <trkpt lat="43.49114" lon="6.32871">
        <ele>167</ele>
        <time>2013-01-22T13:09:15Z</time>
      </trkpt>
      <trkpt lat="43.49123" lon="6.32874">
        <ele>166</ele>
        <time>2013-01-22T13:09:21Z</time>
      </trkpt>
      <trkpt lat="43.49134" lon="6.32872">
        <ele>166</ele>
        <time>2013-01-22T13:09:51Z</time>
      </trkpt>
      <trkpt lat="43.4915" lon="6.32877">
        <ele>168</ele>
        <time>2013-01-22T13:10:51Z</time>
      </trkpt>
      <trkpt lat="43.4916" lon="6.3288">
        <ele>169</ele>
        <time>2013-01-22T13:11:00Z</time>
      </trkpt>
      <trkpt lat="43.49173" lon="6.32884">
        <ele>170</ele>
        <time>2013-01-22T13:11:12Z</time>
      </trkpt>
      <trkpt lat="43.49185" lon="6.32887">
        <ele>171</ele>
        <time>2013-01-22T13:11:18Z</time>
      </trkpt>
      <trkpt lat="43.49195" lon="6.32889">
        <ele>172</ele>
        <time>2013-01-22T13:11:27Z</time>
      </trkpt>
      <trkpt lat="43.49207" lon="6.32889">
        <ele>173</ele>
        <time>2013-01-22T13:11:36Z</time>
      </trkpt>
      <trkpt lat="43.49218" lon="6.32888">
        <ele>173</ele>
        <time>2013-01-22T13:11:45Z</time>
      </trkpt>
      <trkpt lat="43.49231" lon="6.3289">
        <ele>174</ele>
        <time>2013-01-22T13:11:54Z</time>
      </trkpt>
      <trkpt lat="43.49241" lon="6.32891">
        <ele>175</ele>
        <time>2013-01-22T13:12:03Z</time>
      </trkpt>
      <trkpt lat="43.4925" lon="6.32886">
        <ele>176</ele>
        <time>2013-01-22T13:12:12Z</time>
      </trkpt>
      <trkpt lat="43.49255" lon="6.32873">
        <ele>176</ele>
        <time>2013-01-22T13:12:21Z</time>
      </trkpt>
      <trkpt lat="43.49257" lon="6.32859">
        <ele>176</ele>
        <time>2013-01-22T13:12:30Z</time>
      </trkpt>
      <trkpt lat="43.49259" lon="6.32844">
        <ele>176</ele>
        <time>2013-01-22T13:12:39Z</time>
      </trkpt>
      <trkpt lat="43.4926" lon="6.32832">
        <ele>176</ele>
        <time>2013-01-22T13:12:48Z</time>
      </trkpt>
      <trkpt lat="43.49261" lon="6.32817">
        <ele>176</ele>
        <time>2013-01-22T13:12:57Z</time>
      </trkpt>
      <trkpt lat="43.49265" lon="6.32803">
        <ele>176</ele>
        <time>2013-01-22T13:13:06Z</time>
      </trkpt>
      <trkpt lat="43.49268" lon="6.32788">
        <ele>176</ele>
        <time>2013-01-22T13:13:15Z</time>
      </trkpt>
      <trkpt lat="43.49271" lon="6.32775">
        <ele>176</ele>
        <time>2013-01-22T13:13:24Z</time>
      </trkpt>
      <trkpt lat="43.49275" lon="6.32762">
        <ele>176</ele>
        <time>2013-01-22T13:13:33Z</time>
      </trkpt>
      <trkpt lat="43.4928" lon="6.32747">
        <ele>176</ele>
        <time>2013-01-22T13:13:45Z</time>
      </trkpt>
      <trkpt lat="43.49284" lon="6.32732">
        <ele>176</ele>
        <time>2013-01-22T13:13:54Z</time>
      </trkpt>
      <trkpt lat="43.49289" lon="6.32716">
        <ele>176</ele>
        <time>2013-01-22T13:14:06Z</time>
      </trkpt>
      <trkpt lat="43.49293" lon="6.327">
        <ele>175</ele>
        <time>2013-01-22T13:14:18Z</time>
      </trkpt>
      <trkpt lat="43.49297" lon="6.32687">
        <ele>175</ele>
        <time>2013-01-22T13:14:27Z</time>
      </trkpt>
      <trkpt lat="43.49301" lon="6.3267">
        <ele>175</ele>
        <time>2013-01-22T13:14:39Z</time>
      </trkpt>
      <trkpt lat="43.49304" lon="6.32656">
        <ele>176</ele>
        <time>2013-01-22T13:14:48Z</time>
      </trkpt>
      <trkpt lat="43.49308" lon="6.32642">
        <ele>176</ele>
        <time>2013-01-22T13:15:00Z</time>
      </trkpt>
      <trkpt lat="43.49309" lon="6.32628">
        <ele>176</ele>
        <time>2013-01-22T13:15:09Z</time>
      </trkpt>
      <trkpt lat="43.49312" lon="6.32614">
        <ele>176</ele>
        <time>2013-01-22T13:15:18Z</time>
      </trkpt>
      <trkpt lat="43.49316" lon="6.32598">
        <ele>177</ele>
        <time>2013-01-22T13:15:30Z</time>
      </trkpt>
      <trkpt lat="43.49319" lon="6.32585">
        <ele>177</ele>
        <time>2013-01-22T13:15:39Z</time>
      </trkpt>
      <trkpt lat="43.49321" lon="6.32569">
        <ele>177</ele>
        <time>2013-01-22T13:15:51Z</time>
      </trkpt>
      <trkpt lat="43.49327" lon="6.32559">
        <ele>178</ele>
        <time>2013-01-22T13:16:06Z</time>
      </trkpt>
      <trkpt lat="43.49336" lon="6.32553">
        <ele>178</ele>
        <time>2013-01-22T13:16:24Z</time>
      </trkpt>
      <trkpt lat="43.49335" lon="6.3254">
        <ele>180</ele>
        <time>2013-01-22T13:18:57Z</time>
      </trkpt>
      <trkpt lat="43.49344" lon="6.32543">
        <ele>180</ele>
        <time>2013-01-22T13:19:27Z</time>
      </trkpt>
      <trkpt lat="43.49354" lon="6.32537">
        <ele>181</ele>
        <time>2013-01-22T13:19:54Z</time>
      </trkpt>
      <trkpt lat="43.49355" lon="6.32522">
        <ele>181</ele>
        <time>2013-01-22T13:20:12Z</time>
      </trkpt>
      <trkpt lat="43.4935" lon="6.32506">
        <ele>180</ele>
        <time>2013-01-22T13:20:27Z</time>
      </trkpt>
      <trkpt lat="43.49347" lon="6.32493">
        <ele>179</ele>
        <time>2013-01-22T13:20:36Z</time>
      </trkpt>
      <trkpt lat="43.49347" lon="6.3248">
        <ele>179</ele>
        <time>2013-01-22T13:20:48Z</time>
      </trkpt>
      <trkpt lat="43.49347" lon="6.32467">
        <ele>179</ele>
        <time>2013-01-22T13:20:57Z</time>
      </trkpt>
      <trkpt lat="43.49346" lon="6.32453">
        <ele>179</ele>
        <time>2013-01-22T13:21:06Z</time>
      </trkpt>
      <trkpt lat="43.49346" lon="6.3244">
        <ele>179</ele>
        <time>2013-01-22T13:21:15Z</time>
      </trkpt>
      <trkpt lat="43.49346" lon="6.32426">
        <ele>180</ele>
        <time>2013-01-22T13:21:24Z</time>
      </trkpt>
      <trkpt lat="43.49347" lon="6.3241">
        <ele>180</ele>
        <time>2013-01-22T13:21:36Z</time>
      </trkpt>
      <trkpt lat="43.49347" lon="6.32396">
        <ele>180</ele>
        <time>2013-01-22T13:21:45Z</time>
      </trkpt>
      <trkpt lat="43.49353" lon="6.32384">
        <ele>181</ele>
        <time>2013-01-22T13:21:57Z</time>
      </trkpt>
      <trkpt lat="43.4936" lon="6.32371">
        <ele>182</ele>
        <time>2013-01-22T13:22:06Z</time>
      </trkpt>
      <trkpt lat="43.49365" lon="6.32359">
        <ele>183</ele>
        <time>2013-01-22T13:22:15Z</time>
      </trkpt>
      <trkpt lat="43.49369" lon="6.32347">
        <ele>184</ele>
        <time>2013-01-22T13:22:24Z</time>
      </trkpt>
      <trkpt lat="43.49371" lon="6.32334">
        <ele>185</ele>
        <time>2013-01-22T13:22:33Z</time>
      </trkpt>
      <trkpt lat="43.49377" lon="6.3232">
        <ele>186</ele>
        <time>2013-01-22T13:22:45Z</time>
      </trkpt>
      <trkpt lat="43.49383" lon="6.32311">
        <ele>187</ele>
        <time>2013-01-22T13:22:51Z</time>
      </trkpt>
      <trkpt lat="43.4939" lon="6.32301">
        <ele>187</ele>
        <time>2013-01-22T13:23:00Z</time>
      </trkpt>
      <trkpt lat="43.4939" lon="6.32286">
        <ele>188</ele>
        <time>2013-01-22T13:23:12Z</time>
      </trkpt>
      <trkpt lat="43.49391" lon="6.32271">
        <ele>189</ele>
        <time>2013-01-22T13:23:21Z</time>
      </trkpt>
      <trkpt lat="43.49389" lon="6.32254">
        <ele>191</ele>
        <time>2013-01-22T13:23:30Z</time>
      </trkpt>
      <trkpt lat="43.49385" lon="6.32238">
        <ele>194</ele>
        <time>2013-01-22T13:23:39Z</time>
      </trkpt>
      <trkpt lat="43.49381" lon="6.32226">
        <ele>196</ele>
        <time>2013-01-22T13:23:54Z</time>
      </trkpt>
      <trkpt lat="43.49375" lon="6.32216">
        <ele>197</ele>
        <time>2013-01-22T13:24:24Z</time>
      </trkpt>
      <trkpt lat="43.4937" lon="6.32194">
        <ele>198</ele>
        <time>2013-01-22T13:24:42Z</time>
      </trkpt>
      <trkpt lat="43.49363" lon="6.32175">
        <ele>198</ele>
        <time>2013-01-22T13:24:48Z</time>
      </trkpt>
      <trkpt lat="43.49357" lon="6.32166">
        <ele>199</ele>
        <time>2013-01-22T13:24:57Z</time>
      </trkpt>
      <trkpt lat="43.49349" lon="6.32157">
        <ele>200</ele>
        <time>2013-01-22T13:25:03Z</time>
      </trkpt>
      <trkpt lat="43.4934" lon="6.32147">
        <ele>201</ele>
        <time>2013-01-22T13:25:12Z</time>
      </trkpt>
      <trkpt lat="43.49336" lon="6.32136">
        <ele>202</ele>
        <time>2013-01-22T13:25:21Z</time>
      </trkpt>
      <trkpt lat="43.49333" lon="6.3212">
        <ele>203</ele>
        <time>2013-01-22T13:25:30Z</time>
      </trkpt>
      <trkpt lat="43.49333" lon="6.32105">
        <ele>206</ele>
        <time>2013-01-22T13:25:42Z</time>
      </trkpt>
      <trkpt lat="43.49333" lon="6.32091">
        <ele>207</ele>
        <time>2013-01-22T13:25:54Z</time>
      </trkpt>
      <trkpt lat="43.49334" lon="6.32077">
        <ele>208</ele>
        <time>2013-01-22T13:26:06Z</time>
      </trkpt>
      <trkpt lat="43.49337" lon="6.32065">
        <ele>208</ele>
        <time>2013-01-22T13:26:18Z</time>
      </trkpt>
      <trkpt lat="43.49333" lon="6.32052">
        <ele>208</ele>
        <time>2013-01-22T13:26:27Z</time>
      </trkpt>
      <trkpt lat="43.49334" lon="6.32039">
        <ele>208</ele>
        <time>2013-01-22T13:26:36Z</time>
      </trkpt>
      <trkpt lat="43.4934" lon="6.32027">
        <ele>208</ele>
        <time>2013-01-22T13:26:45Z</time>
      </trkpt>
      <trkpt lat="43.49345" lon="6.32011">
        <ele>209</ele>
        <time>2013-01-22T13:27:33Z</time>
      </trkpt>
      <trkpt lat="43.49344" lon="6.31998">
        <ele>209</ele>
        <time>2013-01-22T13:27:42Z</time>
      </trkpt>
      <trkpt lat="43.49344" lon="6.31983">
        <ele>210</ele>
        <time>2013-01-22T13:27:51Z</time>
      </trkpt>
      <trkpt lat="43.49345" lon="6.31969">
        <ele>211</ele>
        <time>2013-01-22T13:28:03Z</time>
      </trkpt>
      <trkpt lat="43.49345" lon="6.31954">
        <ele>211</ele>
        <time>2013-01-22T13:28:12Z</time>
      </trkpt>
      <trkpt lat="43.49345" lon="6.31941">
        <ele>212</ele>
        <time>2013-01-22T13:28:24Z</time>
      </trkpt>
      <trkpt lat="43.49345" lon="6.31928">
        <ele>213</ele>
        <time>2013-01-22T13:28:33Z</time>
      </trkpt>
      <trkpt lat="43.49348" lon="6.31912">
        <ele>213</ele>
        <time>2013-01-22T13:28:45Z</time>
      </trkpt>
      <trkpt lat="43.4935" lon="6.31899">
        <ele>214</ele>
        <time>2013-01-22T13:28:57Z</time>
      </trkpt>
      <trkpt lat="43.49351" lon="6.31886">
        <ele>214</ele>
        <time>2013-01-22T13:29:12Z</time>
      </trkpt>
      <trkpt lat="43.4936" lon="6.31889">
        <ele>214</ele>
        <time>2013-01-22T13:30:24Z</time>
      </trkpt>
      <trkpt lat="43.4935" lon="6.31879">
        <ele>215</ele>
        <time>2013-01-22T13:31:09Z</time>
      </trkpt>
      <trkpt lat="43.49342" lon="6.31869">
        <ele>215</ele>
        <time>2013-01-22T13:31:18Z</time>
      </trkpt>
      <trkpt lat="43.49336" lon="6.31855">
        <ele>216</ele>
        <time>2013-01-22T13:31:27Z</time>
      </trkpt>
      <trkpt lat="43.49335" lon="6.3184">
        <ele>218</ele>
        <time>2013-01-22T13:31:48Z</time>
      </trkpt>
      <trkpt lat="43.49327" lon="6.31829">
        <ele>218</ele>
        <time>2013-01-22T13:32:00Z</time>
      </trkpt>
      <trkpt lat="43.49322" lon="6.31818">
        <ele>219</ele>
        <time>2013-01-22T13:32:09Z</time>
      </trkpt>
      <trkpt lat="43.49315" lon="6.31808">
        <ele>220</ele>
        <time>2013-01-22T13:32:18Z</time>
      </trkpt>
      <trkpt lat="43.49308" lon="6.31797">
        <ele>221</ele>
        <time>2013-01-22T13:32:27Z</time>
      </trkpt>
      <trkpt lat="43.49303" lon="6.31783">
        <ele>221</ele>
        <time>2013-01-22T13:32:42Z</time>
      </trkpt>
      <trkpt lat="43.49297" lon="6.31771">
        <ele>221</ele>
        <time>2013-01-22T13:32:54Z</time>
      </trkpt>
      <trkpt lat="43.49291" lon="6.31761">
        <ele>221</ele>
        <time>2013-01-22T13:33:00Z</time>
      </trkpt>
      <trkpt lat="43.49284" lon="6.31747">
        <ele>221</ele>
        <time>2013-01-22T13:33:12Z</time>
      </trkpt>
      <trkpt lat="43.49279" lon="6.31734">
        <ele>222</ele>
        <time>2013-01-22T13:33:21Z</time>
      </trkpt>
      <trkpt lat="43.49275" lon="6.31721">
        <ele>223</ele>
        <time>2013-01-22T13:33:33Z</time>
      </trkpt>
      <trkpt lat="43.4927" lon="6.31705">
        <ele>224</ele>
        <time>2013-01-22T13:33:45Z</time>
      </trkpt>
      <trkpt lat="43.49265" lon="6.31691">
        <ele>226</ele>
        <time>2013-01-22T13:33:54Z</time>
      </trkpt>
      <trkpt lat="43.49258" lon="6.31681">
        <ele>227</ele>
        <time>2013-01-22T13:34:03Z</time>
      </trkpt>
      <trkpt lat="43.49254" lon="6.31668">
        <ele>227</ele>
        <time>2013-01-22T13:34:12Z</time>
      </trkpt>
      <trkpt lat="43.4925" lon="6.31656">
        <ele>228</ele>
        <time>2013-01-22T13:34:24Z</time>
      </trkpt>
      <trkpt lat="43.49248" lon="6.31642">
        <ele>229</ele>
        <time>2013-01-22T13:34:36Z</time>
      </trkpt>
      <trkpt lat="43.49249" lon="6.31629">
        <ele>230</ele>
        <time>2013-01-22T13:34:48Z</time>
      </trkpt>
      <trkpt lat="43.49247" lon="6.31614">
        <ele>232</ele>
        <time>2013-01-22T13:35:03Z</time>
      </trkpt>
      <trkpt lat="43.49242" lon="6.31603">
        <ele>233</ele>
        <time>2013-01-22T13:35:12Z</time>
      </trkpt>
      <trkpt lat="43.49237" lon="6.31591">
        <ele>235</ele>
        <time>2013-01-22T13:35:24Z</time>
      </trkpt>
      <trkpt lat="43.49231" lon="6.31581">
        <ele>237</ele>
        <time>2013-01-22T13:36:15Z</time>
      </trkpt>
      <trkpt lat="43.49224" lon="6.31571">
        <ele>238</ele>
        <time>2013-01-22T13:36:33Z</time>
      </trkpt>
      <trkpt lat="43.4922" lon="6.31557">
        <ele>239</ele>
        <time>2013-01-22T13:36:48Z</time>
      </trkpt>
      <trkpt lat="43.49216" lon="6.31543">
        <ele>240</ele>
        <time>2013-01-22T13:37:03Z</time>
      </trkpt>
      <trkpt lat="43.49213" lon="6.31522">
        <ele>244</ele>
        <time>2013-01-22T13:37:24Z</time>
      </trkpt>
      <trkpt lat="43.49214" lon="6.31506">
        <ele>246</ele>
        <time>2013-01-22T13:37:33Z</time>
      </trkpt>
      <trkpt lat="43.49212" lon="6.31491">
        <ele>248</ele>
        <time>2013-01-22T13:37:42Z</time>
      </trkpt>
      <trkpt lat="43.49209" lon="6.31478">
        <ele>250</ele>
        <time>2013-01-22T13:37:57Z</time>
      </trkpt>
      <trkpt lat="43.49206" lon="6.31463">
        <ele>252</ele>
        <time>2013-01-22T13:38:06Z</time>
      </trkpt>
      <trkpt lat="43.49204" lon="6.3145">
        <ele>254</ele>
        <time>2013-01-22T13:38:15Z</time>
      </trkpt>
      <trkpt lat="43.49201" lon="6.31438">
        <ele>256</ele>
        <time>2013-01-22T13:38:30Z</time>
      </trkpt>
      <trkpt lat="43.49196" lon="6.31427">
        <ele>257</ele>
        <time>2013-01-22T13:38:42Z</time>
      </trkpt>
      <trkpt lat="43.49195" lon="6.3141">
        <ele>258</ele>
        <time>2013-01-22T13:38:54Z</time>
      </trkpt>
      <trkpt lat="43.49193" lon="6.31396">
        <ele>257</ele>
        <time>2013-01-22T13:39:06Z</time>
      </trkpt>
      <trkpt lat="43.49189" lon="6.31385">
        <ele>257</ele>
        <time>2013-01-22T13:39:15Z</time>
      </trkpt>
      <trkpt lat="43.49185" lon="6.31372">
        <ele>256</ele>
        <time>2013-01-22T13:39:27Z</time>
      </trkpt>
      <trkpt lat="43.49183" lon="6.31359">
        <ele>256</ele>
        <time>2013-01-22T13:39:39Z</time>
      </trkpt>
      <trkpt lat="43.49184" lon="6.3134">
        <ele>257</ele>
        <time>2013-01-22T13:40:24Z</time>
      </trkpt>
      <trkpt lat="43.49181" lon="6.31328">
        <ele>258</ele>
        <time>2013-01-22T13:40:33Z</time>
      </trkpt>
      <trkpt lat="43.4918" lon="6.31314">
        <ele>260</ele>
        <time>2013-01-22T13:41:42Z</time>
      </trkpt>
      <trkpt lat="43.49175" lon="6.313">
        <ele>261</ele>
        <time>2013-01-22T13:41:51Z</time>
      </trkpt>
      <trkpt lat="43.49173" lon="6.31284">
        <ele>263</ele>
        <time>2013-01-22T13:42:00Z</time>
      </trkpt>
      <trkpt lat="43.49171" lon="6.31271">
        <ele>264</ele>
        <time>2013-01-22T13:42:09Z</time>
      </trkpt>
      <trkpt lat="43.49161" lon="6.31272">
        <ele>266</ele>
        <time>2013-01-22T13:42:40Z</time>
      </trkpt>
      <trkpt lat="43.49153" lon="6.31279">
        <ele>264</ele>
        <time>2013-01-22T13:42:52Z</time>
      </trkpt>
      <trkpt lat="43.49143" lon="6.31285">
        <ele>262</ele>
        <time>2013-01-22T13:43:07Z</time>
      </trkpt>
      <trkpt lat="43.49136" lon="6.31293">
        <ele>259</ele>
        <time>2013-01-22T13:43:25Z</time>
      </trkpt>
      <trkpt lat="43.49127" lon="6.313">
        <ele>262</ele>
        <time>2013-01-22T13:44:13Z</time>
      </trkpt>
      <trkpt lat="43.49143" lon="6.31299">
        <ele>259</ele>
        <time>2013-01-22T13:45:27Z</time>
      </trkpt>
      <trkpt lat="43.49133" lon="6.31304">
        <ele>257</ele>
        <time>2013-01-22T13:46:42Z</time>
      </trkpt>
      <trkpt lat="43.49126" lon="6.31311">
        <ele>258</ele>
        <time>2013-01-22T13:47:03Z</time>
      </trkpt>
      <trkpt lat="43.49116" lon="6.31315">
        <ele>258</ele>
        <time>2013-01-22T13:49:06Z</time>
      </trkpt>
      <trkpt lat="43.49106" lon="6.31321">
        <ele>258</ele>
        <time>2013-01-22T13:49:12Z</time>
      </trkpt>
      <trkpt lat="43.49097" lon="6.31328">
        <ele>259</ele>
        <time>2013-01-22T13:49:21Z</time>
      </trkpt>
      <trkpt lat="43.49088" lon="6.31332">
        <ele>259</ele>
        <time>2013-01-22T13:49:30Z</time>
      </trkpt>
      <trkpt lat="43.49076" lon="6.31337">
        <ele>260</ele>
        <time>2013-01-22T13:49:42Z</time>
      </trkpt>
      <trkpt lat="43.49064" lon="6.31337">
        <ele>260</ele>
        <time>2013-01-22T13:49:51Z</time>
      </trkpt>
      <trkpt lat="43.4905" lon="6.31338">
        <ele>262</ele>
        <time>2013-01-22T13:50:03Z</time>
      </trkpt>
      <trkpt lat="43.49041" lon="6.31339">
        <ele>265</ele>
        <time>2013-01-22T13:50:12Z</time>
      </trkpt>
      <trkpt lat="43.49032" lon="6.31343">
        <ele>267</ele>
        <time>2013-01-22T13:50:24Z</time>
      </trkpt>
      <trkpt lat="43.49024" lon="6.31352">
        <ele>269</ele>
        <time>2013-01-22T13:50:36Z</time>
      </trkpt>
      <trkpt lat="43.49014" lon="6.31361">
        <ele>269</ele>
        <time>2013-01-22T13:50:45Z</time>
      </trkpt>
      <trkpt lat="43.49005" lon="6.31366">
        <ele>268</ele>
        <time>2013-01-22T13:51:00Z</time>
      </trkpt>
      <trkpt lat="43.48996" lon="6.31371">
        <ele>267</ele>
        <time>2013-01-22T13:51:12Z</time>
      </trkpt>
      <trkpt lat="43.48986" lon="6.31375">
        <ele>267</ele>
        <time>2013-01-22T13:51:24Z</time>
      </trkpt>
      <trkpt lat="43.48978" lon="6.31382">
        <ele>266</ele>
        <time>2013-01-22T13:51:36Z</time>
      </trkpt>
      <trkpt lat="43.48973" lon="6.31394">
        <ele>265</ele>
        <time>2013-01-22T13:51:48Z</time>
      </trkpt>
      <trkpt lat="43.48967" lon="6.31408">
        <ele>266</ele>
        <time>2013-01-22T13:51:57Z</time>
      </trkpt>
      <trkpt lat="43.48958" lon="6.31418">
        <ele>268</ele>
        <time>2013-01-22T13:52:06Z</time>
      </trkpt>
      <trkpt lat="43.48948" lon="6.31425">
        <ele>271</ele>
        <time>2013-01-22T13:52:18Z</time>
      </trkpt>
      <trkpt lat="43.48939" lon="6.3143">
        <ele>271</ele>
        <time>2013-01-22T13:52:27Z</time>
      </trkpt>
      <trkpt lat="43.48929" lon="6.31434">
        <ele>270</ele>
        <time>2013-01-22T13:52:36Z</time>
      </trkpt>
      <trkpt lat="43.48921" lon="6.3144">
        <ele>269</ele>
        <time>2013-01-22T13:52:48Z</time>
      </trkpt>
      <trkpt lat="43.48909" lon="6.31452">
        <ele>269</ele>
        <time>2013-01-22T13:53:03Z</time>
      </trkpt>
      <trkpt lat="43.489" lon="6.3146">
        <ele>268</ele>
        <time>2013-01-22T13:53:09Z</time>
      </trkpt>
      <trkpt lat="43.4889" lon="6.31466">
        <ele>267</ele>
        <time>2013-01-22T13:53:21Z</time>
      </trkpt>
      <trkpt lat="43.48883" lon="6.31474">
        <ele>265</ele>
        <time>2013-01-22T13:53:33Z</time>
      </trkpt>
      <trkpt lat="43.48873" lon="6.3148">
        <ele>264</ele>
        <time>2013-01-22T13:53:45Z</time>
      </trkpt>
      <trkpt lat="43.48863" lon="6.31488">
        <ele>262</ele>
        <time>2013-01-22T13:53:57Z</time>
      </trkpt>
      <trkpt lat="43.48853" lon="6.31498">
        <ele>261</ele>
        <time>2013-01-22T13:54:09Z</time>
      </trkpt>
      <trkpt lat="43.48843" lon="6.31502">
        <ele>260</ele>
        <time>2013-01-22T13:54:21Z</time>
      </trkpt>
      <trkpt lat="43.48833" lon="6.31507">
        <ele>259</ele>
        <time>2013-01-22T13:54:33Z</time>
      </trkpt>
      <trkpt lat="43.48824" lon="6.31506">
        <ele>258</ele>
        <time>2013-01-22T13:54:42Z</time>
      </trkpt>
      <trkpt lat="43.48813" lon="6.31512">
        <ele>257</ele>
        <time>2013-01-22T13:54:54Z</time>
      </trkpt>
      <trkpt lat="43.48802" lon="6.3152">
        <ele>257</ele>
        <time>2013-01-22T13:55:03Z</time>
      </trkpt>
      <trkpt lat="43.48793" lon="6.31525">
        <ele>257</ele>
        <time>2013-01-22T13:55:06Z</time>
      </trkpt>
      <trkpt lat="43.48783" lon="6.31533">
        <ele>257</ele>
        <time>2013-01-22T13:55:15Z</time>
      </trkpt>
      <trkpt lat="43.48774" lon="6.31539">
        <ele>258</ele>
        <time>2013-01-22T13:55:24Z</time>
      </trkpt>
      <trkpt lat="43.48763" lon="6.31545">
        <ele>259</ele>
        <time>2013-01-22T13:55:36Z</time>
      </trkpt>
      <trkpt lat="43.48754" lon="6.31551">
        <ele>260</ele>
        <time>2013-01-22T13:55:51Z</time>
      </trkpt>
      <trkpt lat="43.48745" lon="6.31547">
        <ele>260</ele>
        <time>2013-01-22T13:56:09Z</time>
      </trkpt>
      <trkpt lat="43.48735" lon="6.31547">
        <ele>260</ele>
        <time>2013-01-22T13:56:24Z</time>
      </trkpt>
      <trkpt lat="43.48725" lon="6.31548">
        <ele>259</ele>
        <time>2013-01-22T13:56:33Z</time>
      </trkpt>
      <trkpt lat="43.48715" lon="6.31546">
        <ele>259</ele>
        <time>2013-01-22T13:56:45Z</time>
      </trkpt>
      <trkpt lat="43.48705" lon="6.31542">
        <ele>258</ele>
        <time>2013-01-22T13:57:00Z</time>
      </trkpt>
      <trkpt lat="43.48697" lon="6.31546">
        <ele>259</ele>
        <time>2013-01-22T13:57:12Z</time>
      </trkpt>
      <trkpt lat="43.48687" lon="6.31549">
        <ele>259</ele>
        <time>2013-01-22T13:57:27Z</time>
      </trkpt>
      <trkpt lat="43.48678" lon="6.31555">
        <ele>260</ele>
        <time>2013-01-22T13:57:42Z</time>
      </trkpt>
      <trkpt lat="43.48668" lon="6.31561">
        <ele>261</ele>
        <time>2013-01-22T13:57:48Z</time>
      </trkpt>
      <trkpt lat="43.48658" lon="6.31562">
        <ele>263</ele>
        <time>2013-01-22T13:57:57Z</time>
      </trkpt>
      <trkpt lat="43.48649" lon="6.31569">
        <ele>265</ele>
        <time>2013-01-22T13:58:09Z</time>
      </trkpt>
      <trkpt lat="43.48643" lon="6.31578">
        <ele>267</ele>
        <time>2013-01-22T13:58:30Z</time>
      </trkpt>
      <trkpt lat="43.48636" lon="6.31591">
        <ele>268</ele>
        <time>2013-01-22T13:58:51Z</time>
      </trkpt>
      <trkpt lat="43.48629" lon="6.31609">
        <ele>269</ele>
        <time>2013-01-22T13:58:57Z</time>
      </trkpt>
      <trkpt lat="43.48621" lon="6.31617">
        <ele>270</ele>
        <time>2013-01-22T13:59:03Z</time>
      </trkpt>
      <trkpt lat="43.48614" lon="6.31629">
        <ele>272</ele>
        <time>2013-01-22T13:59:18Z</time>
      </trkpt>
      <trkpt lat="43.48606" lon="6.31641">
        <ele>272</ele>
        <time>2013-01-22T13:59:30Z</time>
      </trkpt>
      <trkpt lat="43.48597" lon="6.31651">
        <ele>273</ele>
        <time>2013-01-22T13:59:42Z</time>
      </trkpt>
      <trkpt lat="43.48592" lon="6.31661">
        <ele>274</ele>
        <time>2013-01-22T13:59:51Z</time>
      </trkpt>
      <trkpt lat="43.48586" lon="6.31671">
        <ele>274</ele>
        <time>2013-01-22T14:00:06Z</time>
      </trkpt>
      <trkpt lat="43.48581" lon="6.31683">
        <ele>275</ele>
        <time>2013-01-22T14:01:00Z</time>
      </trkpt>
      <trkpt lat="43.48574" lon="6.31691">
        <ele>275</ele>
        <time>2013-01-22T14:01:12Z</time>
      </trkpt>
      <trkpt lat="43.48569" lon="6.31704">
        <ele>275</ele>
        <time>2013-01-22T14:01:24Z</time>
      </trkpt>
      <trkpt lat="43.48563" lon="6.31716">
        <ele>275</ele>
        <time>2013-01-22T14:01:30Z</time>
      </trkpt>
      <trkpt lat="43.48561" lon="6.31728">
        <ele>275</ele>
        <time>2013-01-22T14:02:33Z</time>
      </trkpt>
      <trkpt lat="43.48546" lon="6.31812">
        <ele>274</ele>
        <time>2013-01-22T14:03:59Z</time>
      </trkpt>
      <trkpt lat="43.48551" lon="6.31822">
        <ele>271</ele>
        <time>2013-01-22T14:04:14Z</time>
      </trkpt>
      <trkpt lat="43.48546" lon="6.31835">
        <ele>270</ele>
        <time>2013-01-22T14:04:23Z</time>
      </trkpt>
      <trkpt lat="43.48539" lon="6.31849">
        <ele>270</ele>
        <time>2013-01-22T14:04:32Z</time>
      </trkpt>
      <trkpt lat="43.48543" lon="6.3187">
        <ele>270</ele>
        <time>2013-01-22T14:04:38Z</time>
      </trkpt>
      <trkpt lat="43.48549" lon="6.31884">
        <ele>271</ele>
        <time>2013-01-22T14:04:53Z</time>
      </trkpt>
      <trkpt lat="43.48553" lon="6.31895">
        <ele>271</ele>
        <time>2013-01-22T14:04:59Z</time>
      </trkpt>
      <trkpt lat="43.48556" lon="6.3191">
        <ele>272</ele>
        <time>2013-01-22T14:05:08Z</time>
      </trkpt>
      <trkpt lat="43.48559" lon="6.31923">
        <ele>272</ele>
        <time>2013-01-22T14:05:20Z</time>
      </trkpt>
      <trkpt lat="43.48558" lon="6.31936">
        <ele>272</ele>
        <time>2013-01-22T14:05:38Z</time>
      </trkpt>
      <trkpt lat="43.4855" lon="6.31945">
        <ele>274</ele>
        <time>2013-01-22T14:06:20Z</time>
      </trkpt>
      <trkpt lat="43.4854" lon="6.3194">
        <ele>274</ele>
        <time>2013-01-22T14:06:26Z</time>
      </trkpt>
      <trkpt lat="43.48522" lon="6.31928">
        <ele>275</ele>
        <time>2013-01-22T14:07:54Z</time>
      </trkpt>
      <trkpt lat="43.48537" lon="6.31952">
        <ele>276</ele>
        <time>2013-01-22T14:07:57Z</time>
      </trkpt>
      <trkpt lat="43.48547" lon="6.31952">
        <ele>278</ele>
        <time>2013-01-22T14:08:03Z</time>
      </trkpt>
      <trkpt lat="43.48556" lon="6.31949">
        <ele>278</ele>
        <time>2013-01-22T14:08:24Z</time>
      </trkpt>
      <trkpt lat="43.4856" lon="6.31936">
        <ele>278</ele>
        <time>2013-01-22T14:08:39Z</time>
      </trkpt>
      <trkpt lat="43.4856" lon="6.31923">
        <ele>278</ele>
        <time>2013-01-22T14:08:51Z</time>
      </trkpt>
      <trkpt lat="43.48558" lon="6.31905">
        <ele>278</ele>
        <time>2013-01-22T14:09:03Z</time>
      </trkpt>
      <trkpt lat="43.48553" lon="6.31894">
        <ele>278</ele>
        <time>2013-01-22T14:09:09Z</time>
      </trkpt>
      <trkpt lat="43.4855" lon="6.31881">
        <ele>278</ele>
        <time>2013-01-22T14:09:27Z</time>
      </trkpt>
      <trkpt lat="43.48547" lon="6.31867">
        <ele>279</ele>
        <time>2013-01-22T14:09:39Z</time>
      </trkpt>
      <trkpt lat="43.4854" lon="6.31857">
        <ele>279</ele>
        <time>2013-01-22T14:09:51Z</time>
      </trkpt>
      <trkpt lat="43.48541" lon="6.3184">
        <ele>278</ele>
        <time>2013-01-22T14:10:06Z</time>
      </trkpt>
      <trkpt lat="43.48542" lon="6.31825">
        <ele>277</ele>
        <time>2013-01-22T14:10:18Z</time>
      </trkpt>
      <trkpt lat="43.48549" lon="6.31814">
        <ele>276</ele>
        <time>2013-01-22T14:10:33Z</time>
      </trkpt>
      <trkpt lat="43.48553" lon="6.31802">
        <ele>275</ele>
        <time>2013-01-22T14:10:45Z</time>
      </trkpt>
      <trkpt lat="43.48558" lon="6.3179">
        <ele>274</ele>
        <time>2013-01-22T14:11:00Z</time>
      </trkpt>
      <trkpt lat="43.48557" lon="6.31776">
        <ele>274</ele>
        <time>2013-01-22T14:11:12Z</time>
      </trkpt>
      <trkpt lat="43.48557" lon="6.3176">
        <ele>273</ele>
        <time>2013-01-22T14:11:24Z</time>
      </trkpt>
      <trkpt lat="43.48553" lon="6.31749">
        <ele>273</ele>
        <time>2013-01-22T14:11:36Z</time>
      </trkpt>
      <trkpt lat="43.48558" lon="6.31736">
        <ele>272</ele>
        <time>2013-01-22T14:11:51Z</time>
      </trkpt>
      <trkpt lat="43.48549" lon="6.31737">
        <ele>272</ele>
        <time>2013-01-22T14:12:27Z</time>
      </trkpt>
      <trkpt lat="43.48542" lon="6.31745">
        <ele>272</ele>
        <time>2013-01-22T14:12:39Z</time>
      </trkpt>
      <trkpt lat="43.48535" lon="6.31755">
        <ele>271</ele>
        <time>2013-01-22T14:12:51Z</time>
      </trkpt>
      <trkpt lat="43.48525" lon="6.31766">
        <ele>270</ele>
        <time>2013-01-22T14:13:03Z</time>
      </trkpt>
      <trkpt lat="43.48519" lon="6.31777">
        <ele>269</ele>
        <time>2013-01-22T14:13:12Z</time>
      </trkpt>
      <trkpt lat="43.48512" lon="6.31787">
        <ele>269</ele>
        <time>2013-01-22T14:13:24Z</time>
      </trkpt>
      <trkpt lat="43.48504" lon="6.31792">
        <ele>269</ele>
        <time>2013-01-22T14:13:36Z</time>
      </trkpt>
      <trkpt lat="43.48496" lon="6.31803">
        <ele>268</ele>
        <time>2013-01-22T14:13:48Z</time>
      </trkpt>
      <trkpt lat="43.48488" lon="6.31814">
        <ele>267</ele>
        <time>2013-01-22T14:14:03Z</time>
      </trkpt>
      <trkpt lat="43.4848" lon="6.31823">
        <ele>266</ele>
        <time>2013-01-22T14:14:21Z</time>
      </trkpt>
      <trkpt lat="43.48475" lon="6.31838">
        <ele>266</ele>
        <time>2013-01-22T14:14:33Z</time>
      </trkpt>
      <trkpt lat="43.48468" lon="6.31848">
        <ele>266</ele>
        <time>2013-01-22T14:14:57Z</time>
      </trkpt>
      <trkpt lat="43.4846" lon="6.31854">
        <ele>266</ele>
        <time>2013-01-22T14:15:21Z</time>
      </trkpt>
      <trkpt lat="43.48456" lon="6.31865">
        <ele>264</ele>
        <time>2013-01-22T14:15:42Z</time>
      </trkpt>
      <trkpt lat="43.48449" lon="6.31874">
        <ele>261</ele>
        <time>2013-01-22T14:16:12Z</time>
      </trkpt>
      <trkpt lat="43.48442" lon="6.31881">
        <ele>260</ele>
        <time>2013-01-22T14:16:36Z</time>
      </trkpt>
      <trkpt lat="43.48432" lon="6.31881">
        <ele>257</ele>
        <time>2013-01-22T14:17:17Z</time>
      </trkpt>
      <trkpt lat="43.48423" lon="6.31885">
        <ele>255</ele>
        <time>2013-01-22T14:17:55Z</time>
      </trkpt>
      <trkpt lat="43.48413" lon="6.31885">
        <ele>254</ele>
        <time>2013-01-22T14:18:28Z</time>
      </trkpt>
      <trkpt lat="43.48403" lon="6.31884">
        <ele>251</ele>
        <time>2013-01-22T14:19:04Z</time>
      </trkpt>
      <trkpt lat="43.48395" lon="6.3188">
        <ele>249</ele>
        <time>2013-01-22T14:19:49Z</time>
      </trkpt>
      <trkpt lat="43.48385" lon="6.31879">
        <ele>247</ele>
        <time>2013-01-22T14:20:34Z</time>
      </trkpt>
      <trkpt lat="43.48377" lon="6.31873">
        <ele>243</ele>
        <time>2013-01-22T14:21:10Z</time>
      </trkpt>
      <trkpt lat="43.48367" lon="6.31871">
        <ele>238</ele>
        <time>2013-01-22T14:22:31Z</time>
      </trkpt>
      <trkpt lat="43.48358" lon="6.31872">
        <ele>235</ele>
        <time>2013-01-22T14:23:07Z</time>
      </trkpt>
      <trkpt lat="43.48346" lon="6.31871">
        <ele>231</ele>
        <time>2013-01-22T14:23:28Z</time>
      </trkpt>
      <trkpt lat="43.48337" lon="6.31873">
        <ele>228</ele>
        <time>2013-01-22T14:23:49Z</time>
      </trkpt>
      <trkpt lat="43.48328" lon="6.31872">
        <ele>225</ele>
        <time>2013-01-22T14:24:10Z</time>
      </trkpt>
      <trkpt lat="43.48318" lon="6.31871">
        <ele>222</ele>
        <time>2013-01-22T14:24:28Z</time>
      </trkpt>
      <trkpt lat="43.48308" lon="6.31867">
        <ele>219</ele>
        <time>2013-01-22T14:24:46Z</time>
      </trkpt>
      <trkpt lat="43.483" lon="6.31872">
        <ele>217</ele>
        <time>2013-01-22T14:25:07Z</time>
      </trkpt>
      <trkpt lat="43.4829" lon="6.31868">
        <ele>214</ele>
        <time>2013-01-22T14:25:25Z</time>
      </trkpt>
      <trkpt lat="43.48282" lon="6.31873">
        <ele>211</ele>
        <time>2013-01-22T14:25:55Z</time>
      </trkpt>
      <trkpt lat="43.48277" lon="6.31862">
        <ele>209</ele>
        <time>2013-01-22T14:26:10Z</time>
      </trkpt>
      <trkpt lat="43.48268" lon="6.3185">
        <ele>207</ele>
        <time>2013-01-22T14:26:22Z</time>
      </trkpt>
      <trkpt lat="43.48261" lon="6.31841">
        <ele>205</ele>
        <time>2013-01-22T14:26:34Z</time>
      </trkpt>
      <trkpt lat="43.48253" lon="6.3183">
        <ele>203</ele>
        <time>2013-01-22T14:26:46Z</time>
      </trkpt>
      <trkpt lat="43.48245" lon="6.3182">
        <ele>201</ele>
        <time>2013-01-22T14:26:58Z</time>
      </trkpt>
      <trkpt lat="43.48236" lon="6.3181">
        <ele>199</ele>
        <time>2013-01-22T14:27:10Z</time>
      </trkpt>
      <trkpt lat="43.48225" lon="6.31804">
        <ele>198</ele>
        <time>2013-01-22T14:27:19Z</time>
      </trkpt>
      <trkpt lat="43.48214" lon="6.31799">
        <ele>198</ele>
        <time>2013-01-22T14:27:31Z</time>
      </trkpt>
      <trkpt lat="43.48203" lon="6.31796">
        <ele>198</ele>
        <time>2013-01-22T14:27:43Z</time>
      </trkpt>
      <trkpt lat="43.48194" lon="6.31792">
        <ele>198</ele>
        <time>2013-01-22T14:27:52Z</time>
      </trkpt>
      <trkpt lat="43.48184" lon="6.3179">
        <ele>198</ele>
        <time>2013-01-22T14:28:01Z</time>
      </trkpt>
      <trkpt lat="43.48175" lon="6.31789">
        <ele>198</ele>
        <time>2013-01-22T14:28:13Z</time>
      </trkpt>
      <trkpt lat="43.48165" lon="6.31787">
        <ele>197</ele>
        <time>2013-01-22T14:28:25Z</time>
      </trkpt>
      <trkpt lat="43.48155" lon="6.31787">
        <ele>197</ele>
        <time>2013-01-22T14:28:40Z</time>
      </trkpt>
      <trkpt lat="43.48144" lon="6.31788">
        <ele>196</ele>
        <time>2013-01-22T14:28:55Z</time>
      </trkpt>
      <trkpt lat="43.48134" lon="6.31788">
        <ele>195</ele>
        <time>2013-01-22T14:29:10Z</time>
      </trkpt>
      <trkpt lat="43.48124" lon="6.31789">
        <ele>194</ele>
        <time>2013-01-22T14:29:16Z</time>
      </trkpt>
      <trkpt lat="43.48113" lon="6.31796">
        <ele>194</ele>
        <time>2013-01-22T14:29:28Z</time>
      </trkpt>
      <trkpt lat="43.48105" lon="6.31802">
        <ele>192</ele>
        <time>2013-01-22T14:29:40Z</time>
      </trkpt>
      <trkpt lat="43.48111" lon="6.31813">
        <ele>189</ele>
        <time>2013-01-22T14:30:43Z</time>
      </trkpt>
      <trkpt lat="43.4812" lon="6.31817">
        <ele>187</ele>
        <time>2013-01-22T14:31:01Z</time>
      </trkpt>
      <trkpt lat="43.48127" lon="6.3183">
        <ele>186</ele>
        <time>2013-01-22T14:31:25Z</time>
      </trkpt>
      <trkpt lat="43.48129" lon="6.31842">
        <ele>185</ele>
        <time>2013-01-22T14:31:40Z</time>
      </trkpt>
      <trkpt lat="43.48129" lon="6.31856">
        <ele>183</ele>
        <time>2013-01-22T14:31:58Z</time>
      </trkpt>
      <trkpt lat="43.48128" lon="6.31869">
        <ele>182</ele>
        <time>2013-01-22T14:32:13Z</time>
      </trkpt>
      <trkpt lat="43.48132" lon="6.31881">
        <ele>181</ele>
        <time>2013-01-22T14:32:22Z</time>
      </trkpt>
      <trkpt lat="43.48135" lon="6.31896">
        <ele>178</ele>
        <time>2013-01-22T14:33:04Z</time>
      </trkpt>
      <trkpt lat="43.4814" lon="6.31907">
        <ele>179</ele>
        <time>2013-01-22T14:33:43Z</time>
      </trkpt>
      <trkpt lat="43.48131" lon="6.31911">
        <ele>177</ele>
        <time>2013-01-22T14:33:58Z</time>
      </trkpt>
      <trkpt lat="43.48123" lon="6.3192">
        <ele>176</ele>
        <time>2013-01-22T14:34:16Z</time>
      </trkpt>
      <trkpt lat="43.4812" lon="6.31935">
        <ele>176</ele>
        <time>2013-01-22T14:34:28Z</time>
      </trkpt>
      <trkpt lat="43.48117" lon="6.31949">
        <ele>178</ele>
        <time>2013-01-22T14:34:46Z</time>
      </trkpt>
      <trkpt lat="43.48121" lon="6.3196">
        <ele>185</ele>
        <time>2013-01-22T14:37:04Z</time>
      </trkpt>
      <trkpt lat="43.48125" lon="6.31986">
        <ele>186</ele>
        <time>2013-01-22T14:37:40Z</time>
      </trkpt>
      <trkpt lat="43.48125" lon="6.32002">
        <ele>186</ele>
        <time>2013-01-22T14:37:46Z</time>
      </trkpt>
      <trkpt lat="43.48125" lon="6.3202">
        <ele>187</ele>
        <time>2013-01-22T14:38:01Z</time>
      </trkpt>
      <trkpt lat="43.4813" lon="6.32034">
        <ele>188</ele>
        <time>2013-01-22T14:38:13Z</time>
      </trkpt>
      <trkpt lat="43.48142" lon="6.3204">
        <ele>189</ele>
        <time>2013-01-22T14:38:34Z</time>
      </trkpt>
      <trkpt lat="43.48153" lon="6.32041">
        <ele>190</ele>
        <time>2013-01-22T14:38:46Z</time>
      </trkpt>
      <trkpt lat="43.48162" lon="6.32044">
        <ele>190</ele>
        <time>2013-01-22T14:39:11Z</time>
      </trkpt>
      <trkpt lat="43.4817" lon="6.32057">
        <ele>189</ele>
        <time>2013-01-22T14:39:20Z</time>
      </trkpt>
      <trkpt lat="43.48175" lon="6.32069">
        <ele>189</ele>
        <time>2013-01-22T14:39:32Z</time>
      </trkpt>
      <trkpt lat="43.48181" lon="6.3208">
        <ele>188</ele>
        <time>2013-01-22T14:39:53Z</time>
      </trkpt>
      <trkpt lat="43.48179" lon="6.32097">
        <ele>188</ele>
        <time>2013-01-22T14:39:58Z</time>
      </trkpt>
      <trkpt lat="43.48175" lon="6.32112">
        <ele>188</ele>
        <time>2013-01-22T14:40:04Z</time>
      </trkpt>
      <trkpt lat="43.48172" lon="6.32125">
        <ele>188</ele>
        <time>2013-01-22T14:40:10Z</time>
      </trkpt>
      <trkpt lat="43.48171" lon="6.32138">
        <ele>187</ele>
        <time>2013-01-22T14:40:19Z</time>
      </trkpt>
      <trkpt lat="43.48171" lon="6.32159">
        <ele>187</ele>
        <time>2013-01-22T14:40:25Z</time>
      </trkpt>
      <trkpt lat="43.48172" lon="6.32175">
        <ele>186</ele>
        <time>2013-01-22T14:40:34Z</time>
      </trkpt>
      <trkpt lat="43.48181" lon="6.32188">
        <ele>186</ele>
        <time>2013-01-22T14:40:43Z</time>
      </trkpt>
      <trkpt lat="43.48187" lon="6.32197">
        <ele>186</ele>
        <time>2013-01-22T14:40:52Z</time>
      </trkpt>
      <trkpt lat="43.48196" lon="6.32207">
        <ele>186</ele>
        <time>2013-01-22T14:41:01Z</time>
      </trkpt>
      <trkpt lat="43.48204" lon="6.32214">
        <ele>185</ele>
        <time>2013-01-22T14:41:13Z</time>
      </trkpt>
      <trkpt lat="43.48212" lon="6.32226">
        <ele>185</ele>
        <time>2013-01-22T14:41:22Z</time>
      </trkpt>
      <trkpt lat="43.48213" lon="6.32238">
        <ele>184</ele>
        <time>2013-01-22T14:41:34Z</time>
      </trkpt>
      <trkpt lat="43.48212" lon="6.32253">
        <ele>184</ele>
        <time>2013-01-22T14:41:55Z</time>
      </trkpt>
      <trkpt lat="43.4821" lon="6.32271">
        <ele>183</ele>
        <time>2013-01-22T14:42:07Z</time>
      </trkpt>
      <trkpt lat="43.4821" lon="6.32284">
        <ele>183</ele>
        <time>2013-01-22T14:42:19Z</time>
      </trkpt>
      <trkpt lat="43.48209" lon="6.32299">
        <ele>184</ele>
        <time>2013-01-22T14:42:31Z</time>
      </trkpt>
      <trkpt lat="43.48206" lon="6.32312">
        <ele>184</ele>
        <time>2013-01-22T14:42:40Z</time>
      </trkpt>
      <trkpt lat="43.48205" lon="6.32328">
        <ele>183</ele>
        <time>2013-01-22T14:42:52Z</time>
      </trkpt>
      <trkpt lat="43.48206" lon="6.32342">
        <ele>182</ele>
        <time>2013-01-22T14:43:01Z</time>
      </trkpt>
      <trkpt lat="43.48209" lon="6.32358">
        <ele>181</ele>
        <time>2013-01-22T14:43:10Z</time>
      </trkpt>
      <trkpt lat="43.48213" lon="6.32375">
        <ele>180</ele>
        <time>2013-01-22T14:43:22Z</time>
      </trkpt>
      <trkpt lat="43.48219" lon="6.32386">
        <ele>180</ele>
        <time>2013-01-22T14:43:34Z</time>
      </trkpt>
      <trkpt lat="43.48223" lon="6.32398">
        <ele>180</ele>
        <time>2013-01-22T14:43:43Z</time>
      </trkpt>
      <trkpt lat="43.48228" lon="6.32409">
        <ele>180</ele>
        <time>2013-01-22T14:43:55Z</time>
      </trkpt>
      <trkpt lat="43.48233" lon="6.32422">
        <ele>181</ele>
        <time>2013-01-22T14:44:07Z</time>
      </trkpt>
      <trkpt lat="43.48241" lon="6.32431">
        <ele>181</ele>
        <time>2013-01-22T14:44:28Z</time>
      </trkpt>
      <trkpt lat="43.48245" lon="6.32442">
        <ele>180</ele>
        <time>2013-01-22T14:44:43Z</time>
      </trkpt>
      <trkpt lat="43.48251" lon="6.32452">
        <ele>180</ele>
        <time>2013-01-22T14:44:55Z</time>
      </trkpt>
      <trkpt lat="43.48257" lon="6.32462">
        <ele>180</ele>
        <time>2013-01-22T14:45:22Z</time>
      </trkpt>
      <trkpt lat="43.4826" lon="6.32476">
        <ele>180</ele>
        <time>2013-01-22T14:45:34Z</time>
      </trkpt>
      <trkpt lat="43.48264" lon="6.32487">
        <ele>181</ele>
        <time>2013-01-22T14:45:43Z</time>
      </trkpt>
      <trkpt lat="43.48271" lon="6.32495">
        <ele>182</ele>
        <time>2013-01-22T14:45:55Z</time>
      </trkpt>
      <trkpt lat="43.48281" lon="6.32501">
        <ele>182</ele>
        <time>2013-01-22T14:46:07Z</time>
      </trkpt>
      <trkpt lat="43.4829" lon="6.32506">
        <ele>182</ele>
        <time>2013-01-22T14:46:19Z</time>
      </trkpt>
      <trkpt lat="43.48297" lon="6.32516">
        <ele>183</ele>
        <time>2013-01-22T14:46:34Z</time>
      </trkpt>
      <trkpt lat="43.48304" lon="6.32526">
        <ele>182</ele>
        <time>2013-01-22T14:46:55Z</time>
      </trkpt>
      <trkpt lat="43.48309" lon="6.32538">
        <ele>180</ele>
        <time>2013-01-22T14:47:07Z</time>
      </trkpt>
      <trkpt lat="43.48312" lon="6.32554">
        <ele>179</ele>
        <time>2013-01-22T14:47:22Z</time>
      </trkpt>
      <trkpt lat="43.48315" lon="6.3257">
        <ele>177</ele>
        <time>2013-01-22T14:47:46Z</time>
      </trkpt>
      <trkpt lat="43.48316" lon="6.32583">
        <ele>176</ele>
        <time>2013-01-22T14:48:01Z</time>
      </trkpt>
      <trkpt lat="43.48318" lon="6.32596">
        <ele>175</ele>
        <time>2013-01-22T14:48:16Z</time>
      </trkpt>
      <trkpt lat="43.48321" lon="6.32608">
        <ele>175</ele>
        <time>2013-01-22T14:48:25Z</time>
      </trkpt>
      <trkpt lat="43.48325" lon="6.32624">
        <ele>175</ele>
        <time>2013-01-22T14:48:40Z</time>
      </trkpt>
      <trkpt lat="43.48328" lon="6.32635">
        <ele>175</ele>
        <time>2013-01-22T14:49:01Z</time>
      </trkpt>
      <trkpt lat="43.48334" lon="6.32652">
        <ele>176</ele>
        <time>2013-01-22T14:49:25Z</time>
      </trkpt>
      <trkpt lat="43.48338" lon="6.32664">
        <ele>176</ele>
        <time>2013-01-22T14:49:34Z</time>
      </trkpt>
      <trkpt lat="43.48344" lon="6.32678">
        <ele>175</ele>
        <time>2013-01-22T14:49:52Z</time>
      </trkpt>
      <trkpt lat="43.48348" lon="6.32691">
        <ele>175</ele>
        <time>2013-01-22T14:50:01Z</time>
      </trkpt>
      <trkpt lat="43.48352" lon="6.32704">
        <ele>175</ele>
        <time>2013-01-22T14:50:13Z</time>
      </trkpt>
      <trkpt lat="43.48356" lon="6.3272">
        <ele>176</ele>
        <time>2013-01-22T14:50:22Z</time>
      </trkpt>
      <trkpt lat="43.48359" lon="6.32732">
        <ele>177</ele>
        <time>2013-01-22T14:50:28Z</time>
      </trkpt>
      <trkpt lat="43.48367" lon="6.3275">
        <ele>179</ele>
        <time>2013-01-22T14:50:37Z</time>
      </trkpt>
      <trkpt lat="43.48372" lon="6.32761">
        <ele>179</ele>
        <time>2013-01-22T14:50:43Z</time>
      </trkpt>
      <trkpt lat="43.48383" lon="6.32748">
        <ele>181</ele>
        <time>2013-01-22T14:51:07Z</time>
      </trkpt>
      <trkpt lat="43.48391" lon="6.3274">
        <ele>180</ele>
        <time>2013-01-22T14:51:13Z</time>
      </trkpt>
      <trkpt lat="43.4839" lon="6.32761">
        <ele>179</ele>
        <time>2013-01-22T14:51:22Z</time>
      </trkpt>
      <trkpt lat="43.48393" lon="6.32774">
        <ele>178</ele>
        <time>2013-01-22T14:51:31Z</time>
      </trkpt>
      <trkpt lat="43.48398" lon="6.32788">
        <ele>177</ele>
        <time>2013-01-22T14:51:43Z</time>
      </trkpt>
      <trkpt lat="43.48402" lon="6.32801">
        <ele>176</ele>
        <time>2013-01-22T14:51:55Z</time>
      </trkpt>
      <trkpt lat="43.48408" lon="6.32812">
        <ele>173</ele>
        <time>2013-01-22T14:52:10Z</time>
      </trkpt>
      <trkpt lat="43.48411" lon="6.32825">
        <ele>172</ele>
        <time>2013-01-22T14:52:23Z</time>
      </trkpt>
      <trkpt lat="43.48415" lon="6.32838">
        <ele>171</ele>
        <time>2013-01-22T14:52:41Z</time>
      </trkpt>
      <trkpt lat="43.48419" lon="6.32853">
        <ele>171</ele>
        <time>2013-01-22T14:52:53Z</time>
      </trkpt>
      <trkpt lat="43.48423" lon="6.32866">
        <ele>169</ele>
        <time>2013-01-22T14:53:05Z</time>
      </trkpt>
      <trkpt lat="43.48427" lon="6.3288">
        <ele>169</ele>
        <time>2013-01-22T14:53:17Z</time>
      </trkpt>
      <trkpt lat="43.48429" lon="6.32893">
        <ele>169</ele>
        <time>2013-01-22T14:53:26Z</time>
      </trkpt>
      <trkpt lat="43.48429" lon="6.32909">
        <ele>168</ele>
        <time>2013-01-22T14:53:38Z</time>
      </trkpt>
      <trkpt lat="43.48428" lon="6.32924">
        <ele>168</ele>
        <time>2013-01-22T14:53:50Z</time>
      </trkpt>
      <trkpt lat="43.48427" lon="6.32937">
        <ele>167</ele>
        <time>2013-01-22T14:53:59Z</time>
      </trkpt>
      <trkpt lat="43.48428" lon="6.3295">
        <ele>167</ele>
        <time>2013-01-22T14:54:08Z</time>
      </trkpt>
      <trkpt lat="43.48427" lon="6.32962">
        <ele>166</ele>
        <time>2013-01-22T14:54:20Z</time>
      </trkpt>
      <trkpt lat="43.4843" lon="6.32977">
        <ele>166</ele>
        <time>2013-01-22T14:54:32Z</time>
      </trkpt>
      <trkpt lat="43.48434" lon="6.32993">
        <ele>166</ele>
        <time>2013-01-22T14:55:41Z</time>
      </trkpt>
      <trkpt lat="43.48433" lon="6.33011">
        <ele>166</ele>
        <time>2013-01-22T14:55:50Z</time>
      </trkpt>
      <trkpt lat="43.48442" lon="6.33017">
        <ele>167</ele>
        <time>2013-01-22T14:56:03Z</time>
      </trkpt>
    </trkseg>
  </trk>
</gpx>